Time;durP1;ratioP1;P1;durP2;ratioP2;P2;SDS_P1;SDS_P2;PMS_P1;PMS_P2;Temp;Humidity;BMP_temperature;BMP_pressure;BME280_temperature;BME280_humidity;BME280_pressure;Samples;Min_cycle;Max_cycle;Signal;HPM_P1;HPM_P2
2022/12/22 03:27:23;;;;;;;31.38;22.80;;;11.30;92.70;;;;;;5114521;28;19922;-79
2022/12/22 03:29:49;;;;;;;26.02;21.95;;;11.30;93.30;;;;;;5095903;28;20035;-80
2022/12/22 03:32:15;;;;;;;30.58;22.92;;;11.30;93.20;;;;;;5095739;28;20056;-79
2022/12/22 03:34:40;;;;;;;29.50;22.40;;;11.30;93.60;;;;;;5114502;28;20039;-78
2022/12/22 03:37:06;;;;;;;24.63;21.13;;;11.20;93.20;;;;;;5114432;28;20028;-78
2022/12/22 03:39:32;;;;;;;26.40;20.10;;;11.20;93.50;;;;;;5114379;28;20031;-80
2022/12/22 03:47:26;;;;;;;27.33;20.15;;;11.10;92.90;;;;;;5114830;28;19937;-79
2022/12/22 03:49:52;;;;;;;25.85;20.05;;;11.10;93.70;;;;;;5114506;28;20028;-80
2022/12/22 03:52:17;;;;;;;26.40;18.75;;;11.10;93.60;;;;;;5114377;28;20024;-80
2022/12/22 03:54:43;;;;;;;25.25;18.92;;;11.10;93.50;;;;;;5095720;28;20031;-79
2022/12/22 03:57:09;;;;;;;23.70;18.33;;;11.10;93.40;;;;;;5095660;28;20031;-79
2022/12/22 03:59:34;;;;;;;21.98;17.17;;;11.10;93.50;;;;;;5113965;28;20031;-81
2022/12/22 04:02:00;;;;;;;20.70;17.50;;;11.10;93.30;;;;;;5113854;28;20044;-80
2022/12/22 04:04:26;;;;;;;20.58;17.02;;;11.10;93.40;;;;;;5095715;28;20113;-78
2022/12/22 04:06:53;;;;;;;20.88;17.10;;;11.10;93.50;;;;;;5095380;28;20039;-79
2022/12/22 04:09:21;;;;;;;19.85;16.52;;;11.10;93.60;;;;;;5113811;28;20040;-79
2022/12/22 04:14:31;;;;;;;18.75;14.95;;;11.20;93.00;;;;;;5115792;28;20071;-80
2022/12/22 04:16:56;;;;;;;19.30;15.55;;;11.20;93.40;;;;;;5097731;28;20437;-81
2022/12/22 04:19:24;;;;;;;21.05;15.85;;;11.30;93.50;;;;;;5098505;28;20074;-79
2022/12/22 04:21:49;;;;;;;20.90;14.77;;;11.30;92.80;;;;;;5116035;28;20024;-79
2022/12/22 04:24:15;;;;;;;19.73;15.63;;;11.30;93.40;;;;;;5096522;28;20043;-79
2022/12/22 04:26:41;;;;;;;22.05;15.73;;;11.30;93.50;;;;;;5096165;28;20051;-79
2022/12/22 04:29:07;;;;;;;20.17;15.18;;;11.30;93.50;;;;;;5095296;28;21930;-79
2022/12/22 04:31:32;;;;;;;17.52;14.95;;;11.20;93.40;;;;;;5095326;28;20122;-79
2022/12/22 04:33:58;;;;;;;16.95;14.07;;;11.20;93.40;;;;;;5113428;28;20110;-79
2022/12/22 04:36:24;;;;;;;19.13;15.38;;;11.20;93.40;;;;;;5113513;28;20134;-79
2022/12/22 04:38:50;;;;;;;19.85;15.05;;;11.10;93.50;;;;;;5113364;28;20134;-79
2022/12/22 04:41:15;;;;;;;17.13;14.48;;;11.10;93.40;;;;;;5113101;28;20019;-81
2022/12/22 04:43:41;;;;;;;21.25;14.82;;;11.10;93.40;;;;;;5115154;28;20035;-81
2022/12/22 04:46:07;;;;;;;18.80;14.32;;;11.20;93.40;;;;;;5116534;28;20048;-79
2022/12/22 04:48:33;;;;;;;20.63;14.82;;;11.20;93.30;;;;;;5113308;28;20038;-79
2022/12/22 04:51:00;;;;;;;19.48;14.85;;;11.20;93.50;;;;;;5094806;28;20031;-79
2022/12/22 04:53:27;;;;;;;17.67;14.70;;;11.20;93.30;;;;;;5112999;28;20049;-80
2022/12/22 04:56:11;;;;;;;17.42;13.70;;;11.20;93.40;;;;;;5112908;28;20036;-80
2022/12/22 04:58:37;;;;;;;18.83;14.05;;;11.20;93.40;;;;;;5112942;28;20361;-79
2022/12/22 05:01:14;;;;;;;18.58;14.07;;;11.20;93.40;;;;;;5112900;28;20043;-80
2022/12/22 05:03:40;;;;;;;16.92;13.70;;;11.20;93.70;;;;;;5112691;28;20378;-79
2022/12/22 05:06:06;;;;;;;19.77;15.35;;;11.20;93.50;;;;;;5095675;28;20321;-79
2022/12/22 05:08:32;;;;;;;21.95;16.98;;;11.20;93.40;;;;;;5114729;28;20047;-79
2022/12/22 05:10:58;;;;;;;17.42;14.57;;;11.20;93.40;;;;;;5097961;28;20039;-79
2022/12/22 05:13:23;;;;;;;20.52;14.48;;;11.20;93.40;;;;;;5113300;28;20036;-80
2022/12/22 05:15:49;;;;;;;18.13;14.23;;;11.20;93.40;;;;;;5094479;28;20027;-79
2022/12/22 05:18:15;;;;;;;20.45;14.40;;;11.20;93.40;;;;;;5094327;28;20447;-79
2022/12/22 05:20:41;;;;;;;18.23;13.90;;;11.30;93.30;;;;;;5112967;28;20035;-79
2022/12/22 05:23:06;;;;;;;17.95;14.00;;;11.30;93.40;;;;;;5094457;28;20122;-79
2022/12/22 05:25:32;;;;;;;18.27;13.75;;;11.30;93.30;;;;;;5090830;28;20159;-79
2022/12/22 05:27:58;;;;;;;18.92;14.57;;;11.30;93.20;;;;;;5090813;28;20081;-81
2022/12/22 05:30:23;;;;;;;18.52;14.20;;;11.30;93.30;;;;;;5090549;28;20047;-79
2022/12/22 05:32:49;;;;;;;19.27;14.63;;;11.40;93.40;;;;;;5090890;28;20036;-80
2022/12/22 05:35:15;;;;;;;18.67;13.30;;;11.30;93.20;;;;;;5096310;28;20034;-80
2022/12/22 05:37:41;;;;;;;17.02;13.65;;;11.40;93.30;;;;;;5096551;28;20106;-80
2022/12/22 05:40:07;;;;;;;16.92;13.80;;;11.30;93.30;;;;;;5100415;28;20039;-79
2022/12/22 05:42:36;;;;;;;17.88;13.82;;;11.40;93.30;;;;;;5096408;28;20082;-79
2022/12/22 05:45:13;;;;;;;15.98;14.02;;;11.40;92.80;;;;;;5094903;28;20053;-79
2022/12/22 05:47:39;;;;;;;17.67;13.38;;;11.40;92.70;;;;;;5094801;28;20047;-78
2022/12/22 05:50:06;;;;;;;17.08;13.80;;;11.40;93.40;;;;;;5097364;28;20036;-78
2022/12/22 05:52:32;;;;;;;17.55;14.07;;;11.40;93.30;;;;;;5096569;28;20517;-82
2022/12/22 05:54:58;;;;;;;17.35;13.60;;;11.50;93.30;;;;;;5098386;28;20036;-81
2022/12/22 05:57:23;;;;;;;15.90;13.57;;;11.50;93.40;;;;;;5097391;28;20020;-81
2022/12/22 05:59:49;;;;;;;16.92;14.07;;;11.50;93.40;;;;;;5100158;28;20031;-81
2022/12/22 06:02:15;;;;;;;17.02;14.60;;;11.50;93.30;;;;;;5097591;28;20038;-81
2022/12/22 06:04:41;;;;;;;25.58;18.48;;;11.50;93.40;;;;;;5094528;28;20464;-80
2022/12/22 06:07:06;;;;;;;20.17;17.15;;;11.50;93.40;;;;;;5095579;28;20066;-81
2022/12/22 06:09:32;;;;;;;20.25;15.40;;;11.50;93.30;;;;;;5096172;28;20058;-80
2022/12/22 06:11:58;;;;;;;18.08;14.27;;;11.50;93.30;;;;;;5094342;28;20040;-80
2022/12/22 06:14:23;;;;;;;18.90;13.77;;;11.60;93.50;;;;;;5095574;28;20043;-80
2022/12/22 06:16:49;;;;;;;20.65;15.07;;;11.50;93.40;;;;;;5094139;28;20032;-81
2022/12/22 06:19:15;;;;;;;18.75;14.93;;;11.50;93.40;;;;;;5093705;28;20074;-81
2022/12/22 06:21:40;;;;;;;19.23;14.98;;;11.60;93.40;;;;;;5094028;28;20508;-80
2022/12/22 06:24:06;;;;;;;19.52;15.55;;;11.60;93.50;;;;;;5093966;28;20066;-79
2022/12/22 06:26:32;;;;;;;20.27;14.82;;;11.50;93.40;;;;;;5108228;28;20035;-76
2022/12/22 06:28:58;;;;;;;20.33;15.77;;;11.50;93.40;;;;;;5116957;28;20039;-82
2022/12/22 06:31:24;;;;;;;20.13;16.05;;;11.50;93.50;;;;;;5110379;28;20036;-78
2022/12/22 06:33:50;;;;;;;18.10;15.65;;;11.50;93.50;;;;;;5113993;28;20558;-80
2022/12/22 06:36:16;;;;;;;20.23;16.38;;;11.50;93.60;;;;;;5097099;28;20097;-81
2022/12/22 06:38:41;;;;;;;19.90;14.63;;;11.60;93.60;;;;;;5097344;28;20031;-81
2022/12/22 06:41:07;;;;;;;19.83;15.18;;;11.60;93.40;;;;;;5097526;28;20071;-80
2022/12/22 06:43:33;;;;;;;18.25;15.40;;;11.60;93.40;;;;;;5115505;28;20043;-77
2022/12/22 06:45:58;;;;;;;19.08;15.32;;;11.60;93.50;;;;;;5097254;28;20483;-78
2022/12/22 06:48:24;;;;;;;20.35;16.10;;;11.60;93.50;;;;;;5105836;28;20503;-79
2022/12/22 06:50:50;;;;;;;18.45;15.55;;;11.60;93.40;;;;;;5097840;28;20028;-79
2022/12/22 06:53:16;;;;;;;16.23;13.63;;;11.60;93.60;;;;;;5097432;28;20111;-79
2022/12/22 06:55:42;;;;;;;20.70;15.52;;;11.60;93.60;;;;;;5101060;28;20032;-78
2022/12/22 06:58:07;;;;;;;19.60;14.90;;;11.60;93.40;;;;;;5097508;28;20131;-79
2022/12/22 07:00:33;;;;;;;19.58;15.50;;;11.60;93.50;;;;;;5094820;28;20031;-80
2022/12/22 07:02:59;;;;;;;17.38;14.85;;;11.70;93.40;;;;;;5080227;28;20039;-84
2022/12/22 07:05:25;;;;;;;17.70;14.57;;;11.60;93.40;;;;;;5111358;28;20452;-80
2022/12/22 07:07:52;;;;;;;16.65;13.38;;;11.70;93.60;;;;;;5097327;28;20156;-82
2022/12/22 07:10:56;;;;;;;18.05;13.90;;;11.70;93.60;;;;;;5115308;28;20028;-79
2022/12/22 07:13:17;;;;;;;19.23;14.05;;;11.70;93.40;;;;;;5114435;28;20036;-79
2022/12/22 07:15:44;;;;;;;19.70;14.63;;;11.70;93.30;;;;;;5096143;28;20040;-74
2022/12/22 07:18:11;;;;;;;18.50;13.70;;;11.70;93.50;;;;;;5100385;28;20039;-72
2022/12/22 07:20:36;;;;;;;20.23;14.73;;;11.80;93.50;;;;;;5075813;28;20042;-74
2022/12/22 07:23:02;;;;;;;20.08;14.77;;;11.80;93.40;;;;;;5093787;28;20024;-70
2022/12/22 07:25:28;;;;;;;17.55;14.23;;;11.90;93.30;;;;;;5093355;28;20078;-73
2022/12/22 07:27:53;;;;;;;20.23;14.38;;;11.90;93.30;;;;;;5095863;28;20028;-73
2022/12/22 07:30:19;;;;;;;16.45;13.18;;;11.90;93.30;;;;;;5074876;28;20039;-73
2022/12/22 07:32:45;;;;;;;17.60;13.30;;;11.90;93.10;;;;;;5074858;28;20061;-71
2022/12/22 07:35:11;;;;;;;20.95;14.10;;;11.90;93.10;;;;;;5092952;28;20400;-72
2022/12/22 07:37:36;;;;;;;16.45;13.55;;;11.90;93.10;;;;;;5074801;28;20085;-73
2022/12/22 07:40:02;;;;;;;17.20;14.10;;;11.80;93.20;;;;;;5074453;28;20446;-72
2022/12/22 07:42:43;;;;;;;19.98;14.45;;;11.80;93.00;;;;;;5093059;28;20024;-73
2022/12/22 07:45:17;;;;;;;23.17;14.32;;;11.90;92.70;;;;;;5096463;28;20109;-73
2022/12/22 07:47:44;;;;;;;18.00;14.48;;;12.00;92.70;;;;;;5094959;28;20543;-72
2022/12/22 07:50:26;;;;;;;25.00;16.80;;;12.00;93.20;;;;;;5094568;28;20110;-73
2022/12/22 07:53:02;;;;;;;23.83;15.85;;;12.10;93.10;;;;;;5093593;28;20088;-73
2022/12/22 07:55:31;;;;;;;20.42;15.50;;;12.20;92.50;;;;;;5092799;28;20047;-74
2022/12/22 07:57:57;;;;;;;24.15;15.18;;;12.20;93.00;;;;;;5073200;28;20123;-73
2022/12/22 08:00:23;;;;;;;22.52;15.68;;;12.20;93.00;;;;;;5092596;28;20121;-73
2022/12/22 08:02:51;;;;;;;19.70;14.88;;;12.20;92.70;;;;;;5095253;28;20526;-73
2022/12/22 08:05:17;;;;;;;24.35;15.68;;;12.20;92.80;;;;;;5073834;28;20153;-73
2022/12/22 08:07:44;;;;;;;18.70;14.73;;;12.30;92.80;;;;;;5092673;28;20054;-73
2022/12/22 08:10:11;;;;;;;20.83;14.02;;;12.30;92.70;;;;;;5087206;28;20118;-74
2022/12/22 08:12:37;;;;;;;18.35;13.95;;;12.30;92.70;;;;;;5074219;28;20123;-73
2022/12/22 08:15:04;;;;;;;20.50;14.85;;;12.30;92.70;;;;;;5092095;28;20036;-73
2022/12/22 08:17:30;;;;;;;19.98;13.68;;;12.40;92.50;;;;;;5073898;28;20068;-75
2022/12/22 08:19:55;;;;;;;17.80;14.98;;;12.40;92.50;;;;;;5090521;28;20067;-73
2022/12/22 08:22:22;;;;;;;20.80;13.55;;;12.40;92.40;;;;;;5090348;28;20063;-72
2022/12/22 08:24:49;;;;;;;19.48;13.70;;;12.40;92.50;;;;;;5090687;28;20603;-73
2022/12/22 08:27:19;;;;;;;17.60;13.43;;;12.40;92.50;;;;;;5042208;28;1404639;-73
2022/12/22 08:29:50;;;;;;;19.17;13.77;;;12.40;92.70;;;;;;5096135;28;20493;-74
2022/12/22 08:32:17;;;;;;;20.85;13.55;;;12.40;92.70;;;;;;5074066;28;20038;-72
2022/12/22 08:34:43;;;;;;;21.83;13.60;;;12.40;92.50;;;;;;5096807;28;20094;-72
2022/12/22 08:37:13;;;;;;;20.98;12.93;;;12.50;92.60;;;;;;5083025;28;20036;-73
2022/12/22 08:39:40;;;;;;;19.90;14.20;;;12.50;92.70;;;;;;5075904;28;20063;-73
2022/12/22 08:42:10;;;;;;;20.13;13.00;;;12.50;92.70;;;;;;5074541;28;20410;-72
2022/12/22 08:44:39;;;;;;;18.60;13.00;;;12.60;92.70;;;;;;5092388;28;20461;-71
2022/12/22 08:47:05;;;;;;;20.95;14.02;;;12.60;92.50;;;;;;5092970;28;20060;-72
2022/12/22 08:49:31;;;;;;;19.13;12.43;;;12.60;92.60;;;;;;5093791;28;20107;-71
2022/12/22 08:51:57;;;;;;;20.33;13.38;;;12.70;92.60;;;;;;5091674;28;20126;-70
2022/12/22 08:54:23;;;;;;;17.95;13.38;;;12.80;92.50;;;;;;5109431;28;20050;-71
2022/12/22 08:56:49;;;;;;;20.10;13.65;;;12.80;92.40;;;;;;5082424;28;20551;-70
2022/12/22 08:59:15;;;;;;;19.88;13.82;;;12.90;92.50;;;;;;5109144;28;20096;-72
2022/12/22 09:01:43;;;;;;;20.23;13.73;;;13.00;92.40;;;;;;5111473;28;20028;-71
2022/12/22 09:04:11;;;;;;;21.48;14.05;;;13.10;92.20;;;;;;5093953;28;20510;-70
2022/12/22 09:06:37;;;;;;;20.23;13.27;;;13.20;92.10;;;;;;5112755;28;20052;-70
2022/12/22 09:09:06;;;;;;;20.88;13.82;;;13.30;92.00;;;;;;5088166;28;20060;-71
2022/12/22 09:11:32;;;;;;;21.85;13.80;;;13.40;91.90;;;;;;5115381;27;20027;-69
2022/12/22 09:14:00;;;;;;;25.27;13.35;;;13.40;91.70;;;;;;5115707;28;20502;-70
2022/12/22 09:16:28;;;;;;;18.95;13.52;;;13.50;91.70;;;;;;5118311;28;20112;-70
2022/12/22 09:18:54;;;;;;;24.05;14.10;;;13.50;91.70;;;;;;5118105;28;20044;-71
2022/12/22 09:21:21;;;;;;;17.38;14.18;;;13.50;91.70;;;;;;5100226;28;20126;-69
2022/12/22 09:23:47;;;;;;;22.42;14.45;;;13.50;91.70;;;;;;5100483;28;20118;-71
2022/12/22 09:26:17;;;;;;;20.42;13.85;;;13.50;91.70;;;;;;5123550;27;20574;-70
2022/12/22 09:28:43;;;;;;;20.80;14.90;;;13.60;91.80;;;;;;5139393;27;20398;-74
2022/12/22 09:31:10;;;;;;;21.63;14.95;;;13.60;91.80;;;;;;5139604;27;20106;-71
2022/12/22 09:33:36;;;;;;;21.00;15.10;;;13.60;91.80;;;;;;5139261;27;20033;-71
2022/12/22 09:36:14;;;;;;;21.58;14.10;;;13.70;91.70;;;;;;5139169;27;20110;-71
2022/12/22 09:38:40;;;;;;;23.98;15.30;;;13.80;91.70;;;;;;5139126;27;20092;-71
2022/12/22 09:41:24;;;;;;;22.88;14.88;;;13.90;91.70;;;;;;5106296;28;20433;-71
2022/12/22 09:43:50;;;;;;;;;;;13.90;91.60;;;;;;5118780;28;20115;-72
2022/12/22 09:46:21;;;;;;;30.20;14.75;;;14.00;91.60;;;;;;5118587;28;20002;-71
2022/12/22 09:48:46;;;;;;;27.23;16.52;;;14.10;91.50;;;;;;5119115;28;20028;-73
2022/12/22 09:51:13;;;;;;;21.75;14.52;;;14.20;91.40;;;;;;5098606;28;20040;-72
2022/12/22 09:53:39;;;;;;;19.33;14.05;;;14.20;91.50;;;;;;5099054;28;20062;-72
2022/12/22 09:56:05;;;;;;;20.92;14.23;;;14.30;91.40;;;;;;5111135;27;20052;-72
2022/12/22 09:58:34;;;;;;;24.95;15.00;;;14.40;91.30;;;;;;5100370;28;20028;-73
2022/12/22 10:01:22;;;;;;;24.42;15.57;;;14.40;91.30;;;;;;5103719;28;20031;-71
2022/12/22 10:03:53;;;;;;;24.90;14.07;;;14.50;91.10;;;;;;5101673;28;20380;-72
2022/12/22 10:06:46;;;;;;;23.13;14.40;;;14.60;91.20;;;;;;5109963;28;20344;-72
2022/12/22 10:09:15;;;;;;;20.85;14.48;;;14.70;91.00;;;;;;5118683;28;20058;-71
2022/12/22 10:11:49;;;;;;;23.50;14.35;;;14.80;91.20;;;;;;5110611;27;20032;-72
2022/12/22 10:14:15;;;;;;;29.63;14.70;;;14.90;91.10;;;;;;5098201;28;20391;-68
2022/12/22 10:16:42;;;;;;;20.27;12.85;;;14.90;91.30;;;;;;5088900;28;20122;-74
2022/12/22 10:19:11;;;;;;;20.88;12.82;;;15.00;90.80;;;;;;5119103;28;20039;-71
2022/12/22 10:21:37;;;;;;;19.80;13.10;;;15.10;90.90;;;;;;5115157;28;20038;-70
2022/12/22 10:24:28;;;;;;;22.05;14.75;;;15.20;90.80;;;;;;5115842;28;20119;-69
2022/12/22 10:26:57;;;;;;;19.20;13.50;;;15.30;90.70;;;;;;5074226;28;20083;-71
2022/12/22 10:29:23;;;;;;;21.42;12.98;;;15.30;90.60;;;;;;5074840;28;20037;-71
2022/12/22 10:31:55;;;;;;;15.93;11.35;;;15.50;90.70;;;;;;5075079;28;20082;-71
2022/12/22 10:34:20;;;;;;;16.98;11.32;;;15.50;90.50;;;;;;5075144;28;20111;-73
2022/12/22 10:36:48;;;;;;;22.83;12.25;;;15.50;90.50;;;;;;5072714;28;20071;-72
2022/12/22 10:39:24;;;;;;;23.50;11.75;;;15.60;90.40;;;;;;5036286;28;20037;-71
2022/12/22 10:41:53;;;;;;;17.33;12.68;;;15.70;90.30;;;;;;5052905;28;20444;-73
2022/12/22 10:44:35;;;;;;;23.52;13.00;;;15.70;90.20;;;;;;5037500;28;20103;-72
2022/12/22 10:47:13;;;;;;;19.50;14.50;;;15.70;90.20;;;;;;5068162;28;20036;-75
2022/12/22 10:49:43;;;;;;;20.83;13.95;;;15.70;90.10;;;;;;5073322;28;20488;-75
2022/12/22 10:52:28;;;;;;;17.70;14.70;;;15.70;90.20;;;;;;5071010;28;20094;-70
2022/12/22 10:55:14;;;;;;;19.35;14.32;;;15.60;90.20;;;;;;5055087;28;20119;-73
2022/12/22 10:57:40;;;;;;;54.30;18.63;;;15.70;90.20;;;;;;5058536;28;20029;-71
2022/12/22 11:00:28;;;;;;;21.02;13.73;;;15.70;90.40;;;;;;5072023;28;20128;-71
2022/12/22 11:02:56;;;;;;;21.63;14.10;;;15.70;90.10;;;;;;5072613;28;20039;-71
2022/12/22 11:05:22;;;;;;;209.52;32.17;;;15.70;90.40;;;;;;5074170;28;20045;-74
2022/12/22 11:07:48;;;;;;;28.52;14.07;;;15.70;90.40;;;;;;5074360;28;20492;-74
2022/12/22 11:10:14;;;;;;;27.60;14.30;;;15.70;90.40;;;;;;5074070;28;20051;-72
2022/12/22 11:13:08;;;;;;;22.95;15.07;;;15.70;90.40;;;;;;5069837;28;20122;-71
2022/12/22 11:15:39;;;;;;;;;;;15.70;90.00;;;;;;5075553;28;20379;-72
2022/12/22 11:18:49;;;;;;;27.15;19.42;;;15.70;90.30;;;;;;5094420;28;19923;-75
2022/12/22 11:21:33;;;;;;;23.42;17.52;;;15.70;90.00;;;;;;5093184;28;20463;-74
2022/12/22 11:24:39;;;;;;;22.20;14.90;;;15.80;90.10;;;;;;5093835;28;20081;-71
2022/12/22 11:27:32;;;;;;;26.85;16.00;;;15.90;89.60;;;;;;5091105;28;20072;-72
2022/12/22 11:30:11;;;;;;;22.50;14.00;;;15.90;89.50;;;;;;5071186;28;20040;-79
2022/12/22 11:33:01;;;;;;;24.60;19.50;;;15.90;90.00;;;;;;5065945;28;20146;-76
2022/12/22 11:35:32;;;;;;;19.27;13.95;;;15.80;89.60;;;;;;5071583;28;20057;-75
2022/12/22 11:38:18;;;;;;;16.65;11.43;;;15.80;89.60;;;;;;5073402;28;20032;-77
2022/12/22 11:40:48;;;;;;;17.65;11.77;;;15.80;89.70;;;;;;5071280;28;20037;-79
2022/12/22 11:43:22;;;;;;;20.30;13.15;;;15.70;90.00;;;;;;5064721;28;20073;-77
2022/12/22 11:46:26;;;;;;;16.67;11.55;;;15.90;89.90;;;;;;5069139;28;20048;-75
2022/12/22 11:49:30;;;;;;;23.55;17.35;;;16.10;89.40;;;;;;5070337;28;20046;-75
2022/12/22 11:52:08;;;;;;;16.58;12.60;;;16.30;88.70;;;;;;5031513;28;20060;-79
2022/12/22 11:54:33;;;;;;;14.88;8.75;;;16.50;88.60;;;;;;5073273;28;20032;-78
2022/12/22 11:57:43;;;;;;;11.50;5.88;;;16.70;88.10;;;;;;5073732;28;20113;-78
2022/12/22 12:00:13;;;;;;;6.22;4.00;;;16.90;87.70;;;;;;5035121;28;20087;-77
2022/12/22 12:03:06;;;;;;;9.50;3.92;;;17.00;86.50;;;;;;5051189;28;20033;-75
2022/12/22 12:05:43;;;;;;;5.78;3.40;;;17.10;86.70;;;;;;5051116;28;20143;-79
2022/12/22 12:08:28;;;;;;;8.40;3.35;;;17.20;86.40;;;;;;5052574;28;20037;-75
2022/12/22 12:11:16;;;;;;;5.03;2.95;;;17.20;86.30;;;;;;5053147;28;20131;-75
2022/12/22 12:13:52;;;;;;;7.13;3.97;;;17.30;86.00;;;;;;5075364;28;20123;-75
2022/12/22 12:16:42;;;;;;;6.40;3.50;;;17.40;85.10;;;;;;5068055;28;20035;-77
2022/12/22 12:19:42;;;;;;;6.30;3.30;;;17.50;85.80;;;;;;5052644;28;20127;-77
2022/12/22 12:22:16;;;;;;;13.25;8.73;;;17.60;85.40;;;;;;5052634;28;20037;-76
2022/12/22 12:24:59;;;;;;;10.32;6.32;;;17.80;84.70;;;;;;5052541;28;20562;-78
2022/12/22 12:27:43;;;;;;;5.70;3.40;;;17.90;84.70;;;;;;5071138;28;20110;-72
2022/12/22 12:30:17;;;;;;;6.65;3.20;;;18.00;84.30;;;;;;5072357;28;20033;-75
2022/12/22 12:32:54;;;;;;;6.47;3.13;;;18.10;83.50;;;;;;5070907;28;20123;-75
2022/12/22 12:35:20;;;;;;;6.65;3.38;;;18.20;83.10;;;;;;5071158;28;20041;-75
2022/12/22 12:37:50;;;;;;;4.80;2.80;;;18.30;82.70;;;;;;5071305;28;20036;-77
2022/12/22 12:40:35;;;;;;;8.43;3.05;;;18.30;82.40;;;;;;5071335;28;20438;-73
2022/12/22 12:43:02;;;;;;;7.85;3.03;;;18.20;82.30;;;;;;5072335;28;20047;-72
2022/12/22 12:45:43;;;;;;;5.45;2.80;;;18.00;82.00;;;;;;5080718;28;20403;-72
2022/12/22 12:48:23;;;;;;;9.10;3.50;;;18.10;82.30;;;;;;5091269;28;20214;-71
2022/12/22 12:50:53;;;;;;;10.40;5.88;;;18.00;81.90;;;;;;5090905;28;20032;-73
2022/12/22 12:53:21;;;;;;;8.80;3.65;;;17.90;82.00;;;;;;5086858;28;20440;-74
2022/12/22 12:55:52;;;;;;;7.30;3.40;;;17.90;81.70;;;;;;5091027;28;20025;-73
2022/12/22 12:58:36;;;;;;;6.65;3.30;;;17.80;81.50;;;;;;5078947;28;20488;-72
2022/12/22 13:01:32;;;;;;;7.78;2.88;;;17.70;81.70;;;;;;5072159;28;20028;-70
2022/12/22 13:03:58;;;;;;;5.10;2.80;;;17.60;81.50;;;;;;5071849;28;20043;-72
2022/12/22 13:06:45;;;;;;;5.15;3.28;;;17.50;81.60;;;;;;5071241;28;20036;-72
2022/12/22 13:09:27;;;;;;;8.20;4.90;;;17.40;81.60;;;;;;5085708;28;20119;-74
